<?xml version="1.0" encoding="UTF-8" standalone="no" ?>
<gpx xmlns="http://www.topografix.com/GPX/1/1" xmlns:xsi="http://www.w3.org/2001/XMLSchema-instance" xsi:schemaLocation="http://www.topografix.com/GPX/1/1 http://www.topografix.com/GPX/1/1/gpx.xsd" version="1.1" creator="VisuGPX - https://www.visugpx.com">
  <metadata>
    <name>Roquebrune P 2</name>
    <desc><![CDATA[Sur les 28, tous ne sont pas montés jusqu\'aux crois.]]></desc>
  </metadata>
  <trk>
    <name><![CDATA[Reconaissance]]></name>
    <trkseg>
      <trkpt lat="43.46343" lon="6.57179">
        <ele>42.435425</ele>
        <time>2014-03-11T08:25:04Z</time>
      </trkpt>
      <trkpt lat="43.4636" lon="6.57188">
        <ele>36.66748</ele>
        <time>2014-03-11T08:33:50Z</time>
      </trkpt>
      <trkpt lat="43.46362" lon="6.57236">
        <ele>30.418823</ele>
        <time>2014-03-11T08:34:40Z</time>
      </trkpt>
      <trkpt lat="43.46349" lon="6.57276">
        <ele>31.380127</ele>
        <time>2014-03-11T08:35:06Z</time>
      </trkpt>
      <trkpt lat="43.46337" lon="6.57314">
        <ele>33.302856</ele>
        <time>2014-03-11T08:35:35Z</time>
      </trkpt>
      <trkpt lat="43.46341" lon="6.57353">
        <ele>31.380127</ele>
        <time>2014-03-11T08:36:02Z</time>
      </trkpt>
      <trkpt lat="43.46356" lon="6.57385">
        <ele>32.341553</ele>
        <time>2014-03-11T08:36:28Z</time>
      </trkpt>
      <trkpt lat="43.46366" lon="6.57421">
        <ele>30.899536</ele>
        <time>2014-03-11T08:36:55Z</time>
      </trkpt>
      <trkpt lat="43.46359" lon="6.57461">
        <ele>29.93811</ele>
        <time>2014-03-11T08:37:23Z</time>
      </trkpt>
      <trkpt lat="43.46353" lon="6.57503">
        <ele>34.26416</ele>
        <time>2014-03-11T08:37:49Z</time>
      </trkpt>
      <trkpt lat="43.46351" lon="6.57542">
        <ele>36.186768</ele>
        <time>2014-03-11T08:38:14Z</time>
      </trkpt>
      <trkpt lat="43.46353" lon="6.57579">
        <ele>36.186768</ele>
        <time>2014-03-11T08:38:38Z</time>
      </trkpt>
      <trkpt lat="43.46343" lon="6.57639">
        <ele>36.186768</ele>
        <time>2014-03-11T08:39:41Z</time>
      </trkpt>
      <trkpt lat="43.46315" lon="6.57634">
        <ele>40.512817</ele>
        <time>2014-03-11T08:40:13Z</time>
      </trkpt>
      <trkpt lat="43.46286" lon="6.57632">
        <ele>43.396606</ele>
        <time>2014-03-11T08:40:48Z</time>
      </trkpt>
      <trkpt lat="43.46258" lon="6.57645">
        <ele>47.241821</ele>
        <time>2014-03-11T08:41:24Z</time>
      </trkpt>
      <trkpt lat="43.46232" lon="6.57653">
        <ele>53.971191</ele>
        <time>2014-03-11T08:41:59Z</time>
      </trkpt>
      <trkpt lat="43.46204" lon="6.57666">
        <ele>55.893799</ele>
        <time>2014-03-11T08:42:35Z</time>
      </trkpt>
      <trkpt lat="43.46177" lon="6.57677">
        <ele>62.142334</ele>
        <time>2014-03-11T08:43:09Z</time>
      </trkpt>
      <trkpt lat="43.46148" lon="6.5769">
        <ele>67.910278</ele>
        <time>2014-03-11T08:44:12Z</time>
      </trkpt>
      <trkpt lat="43.46125" lon="6.57715">
        <ele>74.158813</ele>
        <time>2014-03-11T08:44:51Z</time>
      </trkpt>
      <trkpt lat="43.461" lon="6.57738">
        <ele>77.523438</ele>
        <time>2014-03-11T08:45:32Z</time>
      </trkpt>
      <trkpt lat="43.46072" lon="6.5776">
        <ele>81.368774</ele>
        <time>2014-03-11T08:46:20Z</time>
      </trkpt>
      <trkpt lat="43.46038" lon="6.57778">
        <ele>86.175293</ele>
        <time>2014-03-11T08:47:17Z</time>
      </trkpt>
      <trkpt lat="43.45996" lon="6.57787">
        <ele>100.114502</ele>
        <time>2014-03-11T08:49:09Z</time>
      </trkpt>
      <trkpt lat="43.45967" lon="6.57809">
        <ele>108.285645</ele>
        <time>2014-03-11T08:50:15Z</time>
      </trkpt>
      <trkpt lat="43.4594" lon="6.57812">
        <ele>112.611572</ele>
        <time>2014-03-11T08:50:54Z</time>
      </trkpt>
      <trkpt lat="43.45921" lon="6.57805">
        <ele>119.34082</ele>
        <time>2014-03-11T08:51:44Z</time>
      </trkpt>
      <trkpt lat="43.45919" lon="6.5777">
        <ele>127.511963</ele>
        <time>2014-03-11T08:52:19Z</time>
      </trkpt>
      <trkpt lat="43.45912" lon="6.57736">
        <ele>128.954102</ele>
        <time>2014-03-11T08:52:47Z</time>
      </trkpt>
      <trkpt lat="43.45885" lon="6.57741">
        <ele>129.434692</ele>
        <time>2014-03-11T08:53:19Z</time>
      </trkpt>
      <trkpt lat="43.45857" lon="6.57732">
        <ele>133.760498</ele>
        <time>2014-03-11T08:53:50Z</time>
      </trkpt>
      <trkpt lat="43.45831" lon="6.57744">
        <ele>137.605835</ele>
        <time>2014-03-11T08:54:26Z</time>
      </trkpt>
      <trkpt lat="43.45804" lon="6.57741">
        <ele>140.489868</ele>
        <time>2014-03-11T08:54:58Z</time>
      </trkpt>
      <trkpt lat="43.45776" lon="6.57737">
        <ele>145.296387</ele>
        <time>2014-03-11T08:55:37Z</time>
      </trkpt>
      <trkpt lat="43.4575" lon="6.57715">
        <ele>146.257813</ele>
        <time>2014-03-11T08:56:08Z</time>
      </trkpt>
      <trkpt lat="43.45732" lon="6.57685">
        <ele>144.815796</ele>
        <time>2014-03-11T08:56:38Z</time>
      </trkpt>
      <trkpt lat="43.45709" lon="6.57661">
        <ele>146.257813</ele>
        <time>2014-03-11T08:57:08Z</time>
      </trkpt>
      <trkpt lat="43.45687" lon="6.57628">
        <ele>141.45105</ele>
        <time>2014-03-11T08:57:47Z</time>
      </trkpt>
      <trkpt lat="43.4566" lon="6.57611">
        <ele>139.047852</ele>
        <time>2014-03-11T08:58:21Z</time>
      </trkpt>
      <trkpt lat="43.45631" lon="6.576">
        <ele>139.047852</ele>
        <time>2014-03-11T08:58:59Z</time>
      </trkpt>
      <trkpt lat="43.4561" lon="6.57591">
        <ele>134.721924</ele>
        <time>2014-03-11T08:59:28Z</time>
      </trkpt>
      <trkpt lat="43.45579" lon="6.5759">
        <ele>138.086548</ele>
        <time>2014-03-11T09:00:54Z</time>
      </trkpt>
      <trkpt lat="43.45549" lon="6.57595">
        <ele>134.721924</ele>
        <time>2014-03-11T09:01:22Z</time>
      </trkpt>
      <trkpt lat="43.45516" lon="6.57598">
        <ele>128.473389</ele>
        <time>2014-03-11T09:01:49Z</time>
      </trkpt>
      <trkpt lat="43.45461" lon="6.57606">
        <ele>115.014893</ele>
        <time>2014-03-11T09:02:44Z</time>
      </trkpt>
      <trkpt lat="43.45425" lon="6.57604">
        <ele>116.9375</ele>
        <time>2014-03-11T09:03:14Z</time>
      </trkpt>
      <trkpt lat="43.45391" lon="6.576">
        <ele>122.224731</ele>
        <time>2014-03-11T09:03:42Z</time>
      </trkpt>
      <trkpt lat="43.45354" lon="6.57595">
        <ele>127.511963</ele>
        <time>2014-03-11T09:04:15Z</time>
      </trkpt>
      <trkpt lat="43.45322" lon="6.576">
        <ele>128.473389</ele>
        <time>2014-03-11T09:04:46Z</time>
      </trkpt>
      <trkpt lat="43.45293" lon="6.57629">
        <ele>132.799316</ele>
        <time>2014-03-11T09:05:28Z</time>
      </trkpt>
      <trkpt lat="43.45277" lon="6.57678">
        <ele>141.931763</ele>
        <time>2014-03-11T09:06:21Z</time>
      </trkpt>
      <trkpt lat="43.45275" lon="6.57725">
        <ele>142.893066</ele>
        <time>2014-03-11T09:07:00Z</time>
      </trkpt>
      <trkpt lat="43.45272" lon="6.57774">
        <ele>144.335205</ele>
        <time>2014-03-11T09:07:40Z</time>
      </trkpt>
      <trkpt lat="43.45254" lon="6.58047">
        <ele>167.406738</ele>
        <time>2014-03-11T09:11:52Z</time>
      </trkpt>
      <trkpt lat="43.45251" lon="6.58122">
        <ele>168.848755</ele>
        <time>2014-03-11T09:12:47Z</time>
      </trkpt>
      <trkpt lat="43.4525" lon="6.582">
        <ele>166.926025</ele>
        <time>2014-03-11T09:14:33Z</time>
      </trkpt>
      <trkpt lat="43.45249" lon="6.58247">
        <ele>167.887329</ele>
        <time>2014-03-11T09:15:03Z</time>
      </trkpt>
      <trkpt lat="43.45256" lon="6.58319">
        <ele>162.119507</ele>
        <time>2014-03-11T09:15:55Z</time>
      </trkpt>
      <trkpt lat="43.45238" lon="6.58395">
        <ele>160.196899</ele>
        <time>2014-03-11T09:16:48Z</time>
      </trkpt>
      <trkpt lat="43.45207" lon="6.5846">
        <ele>157.312866</ele>
        <time>2014-03-11T09:17:39Z</time>
      </trkpt>
      <trkpt lat="43.45177" lon="6.58481">
        <ele>165.964722</ele>
        <time>2014-03-11T09:18:08Z</time>
      </trkpt>
      <trkpt lat="43.45158" lon="6.58521">
        <ele>163.561523</ele>
        <time>2014-03-11T09:18:40Z</time>
      </trkpt>
      <trkpt lat="43.45158" lon="6.5858">
        <ele>161.158203</ele>
        <time>2014-03-11T09:19:22Z</time>
      </trkpt>
      <trkpt lat="43.45139" lon="6.58664">
        <ele>166.445313</ele>
        <time>2014-03-11T09:20:21Z</time>
      </trkpt>
      <trkpt lat="43.45115" lon="6.587">
        <ele>167.887329</ele>
        <time>2014-03-11T09:20:51Z</time>
      </trkpt>
      <trkpt lat="43.45085" lon="6.5874">
        <ele>166.445313</ele>
        <time>2014-03-11T09:21:28Z</time>
      </trkpt>
      <trkpt lat="43.45059" lon="6.58782">
        <ele>166.926025</ele>
        <time>2014-03-11T09:22:05Z</time>
      </trkpt>
      <trkpt lat="43.45027" lon="6.58813">
        <ele>168.368042</ele>
        <time>2014-03-11T09:22:37Z</time>
      </trkpt>
      <trkpt lat="43.44998" lon="6.58845">
        <ele>163.561523</ele>
        <time>2014-03-11T09:23:15Z</time>
      </trkpt>
      <trkpt lat="43.44965" lon="6.5888">
        <ele>155.390259</ele>
        <time>2014-03-11T09:23:57Z</time>
      </trkpt>
      <trkpt lat="43.44937" lon="6.58903">
        <ele>162.600098</ele>
        <time>2014-03-11T09:28:53Z</time>
      </trkpt>
      <trkpt lat="43.44926" lon="6.58939">
        <ele>165.964722</ele>
        <time>2014-03-11T09:30:26Z</time>
      </trkpt>
      <trkpt lat="43.44916" lon="6.58978">
        <ele>165.964722</ele>
        <time>2014-03-11T09:30:58Z</time>
      </trkpt>
      <trkpt lat="43.44905" lon="6.59018">
        <ele>168.368042</ele>
        <time>2014-03-11T09:31:31Z</time>
      </trkpt>
      <trkpt lat="43.44894" lon="6.59056">
        <ele>169.810059</ele>
        <time>2014-03-11T09:32:00Z</time>
      </trkpt>
      <trkpt lat="43.44882" lon="6.59093">
        <ele>173.655273</ele>
        <time>2014-03-11T09:32:34Z</time>
      </trkpt>
      <trkpt lat="43.44865" lon="6.5913">
        <ele>177.981201</ele>
        <time>2014-03-11T09:33:15Z</time>
      </trkpt>
      <trkpt lat="43.44848" lon="6.59196">
        <ele>169.329468</ele>
        <time>2014-03-11T09:34:06Z</time>
      </trkpt>
      <trkpt lat="43.44834" lon="6.59251">
        <ele>168.848755</ele>
        <time>2014-03-11T09:35:00Z</time>
      </trkpt>
      <trkpt lat="43.44809" lon="6.59308">
        <ele>174.135864</ele>
        <time>2014-03-11T09:35:52Z</time>
      </trkpt>
      <trkpt lat="43.44791" lon="6.59342">
        <ele>177.02002</ele>
        <time>2014-03-11T09:36:27Z</time>
      </trkpt>
      <trkpt lat="43.44793" lon="6.59394">
        <ele>177.50061</ele>
        <time>2014-03-11T09:37:06Z</time>
      </trkpt>
      <trkpt lat="43.44802" lon="6.59429">
        <ele>190.958984</ele>
        <time>2014-03-11T09:40:36Z</time>
      </trkpt>
      <trkpt lat="43.44781" lon="6.59456">
        <ele>187.59436</ele>
        <time>2014-03-11T09:41:07Z</time>
      </trkpt>
      <trkpt lat="43.44753" lon="6.59469">
        <ele>189.516968</ele>
        <time>2014-03-11T09:41:36Z</time>
      </trkpt>
      <trkpt lat="43.44727" lon="6.5949">
        <ele>183.268433</ele>
        <time>2014-03-11T09:42:11Z</time>
      </trkpt>
      <trkpt lat="43.44701" lon="6.59548">
        <ele>166.926025</ele>
        <time>2014-03-11T09:43:05Z</time>
      </trkpt>
      <trkpt lat="43.44692" lon="6.59594">
        <ele>161.638916</ele>
        <time>2014-03-11T09:43:42Z</time>
      </trkpt>
      <trkpt lat="43.44689" lon="6.59639">
        <ele>165.003418</ele>
        <time>2014-03-11T09:44:11Z</time>
      </trkpt>
      <trkpt lat="43.44709" lon="6.5965">
        <ele>165.484131</ele>
        <time>2014-03-11T09:44:40Z</time>
      </trkpt>
      <trkpt lat="43.44728" lon="6.5967">
        <ele>171.252075</ele>
        <time>2014-03-11T09:45:07Z</time>
      </trkpt>
      <trkpt lat="43.44735" lon="6.59706">
        <ele>176.058594</ele>
        <time>2014-03-11T09:45:36Z</time>
      </trkpt>
      <trkpt lat="43.44737" lon="6.59742">
        <ele>176.058594</ele>
        <time>2014-03-11T09:46:01Z</time>
      </trkpt>
      <trkpt lat="43.44738" lon="6.59779">
        <ele>175.577881</ele>
        <time>2014-03-11T09:46:24Z</time>
      </trkpt>
      <trkpt lat="43.44731" lon="6.59813">
        <ele>174.616577</ele>
        <time>2014-03-11T09:46:50Z</time>
      </trkpt>
      <trkpt lat="43.44706" lon="6.5983">
        <ele>174.135864</ele>
        <time>2014-03-11T09:48:09Z</time>
      </trkpt>
      <trkpt lat="43.44706" lon="6.59888">
        <ele>169.810059</ele>
        <time>2014-03-11T09:48:57Z</time>
      </trkpt>
      <trkpt lat="43.44668" lon="6.59927">
        <ele>166.445313</ele>
        <time>2014-03-11T09:49:54Z</time>
      </trkpt>
      <trkpt lat="43.44649" lon="6.59975">
        <ele>168.368042</ele>
        <time>2014-03-11T09:50:30Z</time>
      </trkpt>
      <trkpt lat="43.44636" lon="6.60018">
        <ele>167.887329</ele>
        <time>2014-03-11T09:50:58Z</time>
      </trkpt>
      <trkpt lat="43.44646" lon="6.6008">
        <ele>169.329468</ele>
        <time>2014-03-11T09:52:10Z</time>
      </trkpt>
      <trkpt lat="43.44682" lon="6.6011">
        <ele>189.036377</ele>
        <time>2014-03-11T09:53:48Z</time>
      </trkpt>
      <trkpt lat="43.447" lon="6.60082">
        <ele>193.362305</ele>
        <time>2014-03-11T09:54:20Z</time>
      </trkpt>
      <trkpt lat="43.4473" lon="6.60069">
        <ele>194.804321</ele>
        <time>2014-03-11T09:55:04Z</time>
      </trkpt>
      <trkpt lat="43.44853" lon="6.602">
        <ele>240.947632</ele>
        <time>2014-03-11T10:06:25Z</time>
      </trkpt>
      <trkpt lat="43.44732" lon="6.60067">
        <ele>215.472656</ele>
        <time>2014-03-11T10:36:15Z</time>
      </trkpt>
      <trkpt lat="43.44641" lon="6.60061">
        <ele>193.843018</ele>
        <time>2014-03-11T10:41:06Z</time>
      </trkpt>
      <trkpt lat="43.44643" lon="6.59999">
        <ele>183.749023</ele>
        <time>2014-03-11T10:41:52Z</time>
      </trkpt>
      <trkpt lat="43.44647" lon="6.59953">
        <ele>176.539307</ele>
        <time>2014-03-11T10:42:25Z</time>
      </trkpt>
      <trkpt lat="43.44697" lon="6.59899">
        <ele>152.506348</ele>
        <time>2014-03-11T10:43:44Z</time>
      </trkpt>
      <trkpt lat="43.44703" lon="6.59849">
        <ele>164.042114</ele>
        <time>2014-03-11T10:44:25Z</time>
      </trkpt>
      <trkpt lat="43.4472" lon="6.5982">
        <ele>167.406738</ele>
        <time>2014-03-11T10:45:00Z</time>
      </trkpt>
      <trkpt lat="43.44737" lon="6.59769">
        <ele>172.213257</ele>
        <time>2014-03-11T10:46:35Z</time>
      </trkpt>
      <trkpt lat="43.44727" lon="6.59669">
        <ele>174.616577</ele>
        <time>2014-03-11T10:48:02Z</time>
      </trkpt>
      <trkpt lat="43.44687" lon="6.59626">
        <ele>165.964722</ele>
        <time>2014-03-11T10:49:15Z</time>
      </trkpt>
      <trkpt lat="43.44768" lon="6.59466">
        <ele>167.406738</ele>
        <time>2014-03-11T10:52:06Z</time>
      </trkpt>
      <trkpt lat="43.44806" lon="6.59418">
        <ele>176.058594</ele>
        <time>2014-03-11T10:52:59Z</time>
      </trkpt>
      <trkpt lat="43.44832" lon="6.59389">
        <ele>180.384521</ele>
        <time>2014-03-11T10:53:33Z</time>
      </trkpt>
      <trkpt lat="43.44867" lon="6.59372">
        <ele>188.075073</ele>
        <time>2014-03-11T10:54:17Z</time>
      </trkpt>
      <trkpt lat="43.44891" lon="6.59345">
        <ele>188.075073</ele>
        <time>2014-03-11T10:54:46Z</time>
      </trkpt>
      <trkpt lat="43.44927" lon="6.59308">
        <ele>194.32373</ele>
        <time>2014-03-11T10:55:40Z</time>
      </trkpt>
      <trkpt lat="43.44966" lon="6.59323">
        <ele>197.688232</ele>
        <time>2014-03-11T10:56:42Z</time>
      </trkpt>
      <trkpt lat="43.44988" lon="6.59328">
        <ele>204.41748</ele>
        <time>2014-03-11T10:57:50Z</time>
      </trkpt>
      <trkpt lat="43.45017" lon="6.59354">
        <ele>206.820679</ele>
        <time>2014-03-11T10:59:32Z</time>
      </trkpt>
      <trkpt lat="43.45056" lon="6.59355">
        <ele>220.279175</ele>
        <time>2014-03-11T11:00:32Z</time>
      </trkpt>
      <trkpt lat="43.45118" lon="6.59376">
        <ele>206.340088</ele>
        <time>2014-03-11T11:02:01Z</time>
      </trkpt>
      <trkpt lat="43.45209" lon="6.59389">
        <ele>196.726929</ele>
        <time>2014-03-11T11:03:48Z</time>
      </trkpt>
      <trkpt lat="43.45385" lon="6.59407">
        <ele>213.550049</ele>
        <time>2014-03-11T11:10:46Z</time>
      </trkpt>
      <trkpt lat="43.45363" lon="6.59459">
        <ele>402.449097</ele>
        <time>2014-03-11T12:34:51Z</time>
      </trkpt>
      <trkpt lat="43.4539" lon="6.59549">
        <ele>199.130127</ele>
        <time>2014-03-11T12:39:54Z</time>
      </trkpt>
      <trkpt lat="43.45527" lon="6.59761">
        <ele>125.589355</ele>
        <time>2014-03-11T12:48:27Z</time>
      </trkpt>
      <trkpt lat="43.45564" lon="6.59783">
        <ele>112.611572</ele>
        <time>2014-03-11T12:50:07Z</time>
      </trkpt>
      <trkpt lat="43.45594" lon="6.59798">
        <ele>109.246948</ele>
        <time>2014-03-11T12:51:20Z</time>
      </trkpt>
      <trkpt lat="43.45623" lon="6.59797">
        <ele>104.921021</ele>
        <time>2014-03-11T12:52:17Z</time>
      </trkpt>
      <trkpt lat="43.4565" lon="6.59787">
        <ele>103.479004</ele>
        <time>2014-03-11T12:53:27Z</time>
      </trkpt>
      <trkpt lat="43.45681" lon="6.59799">
        <ele>101.556396</ele>
        <time>2014-03-11T12:54:11Z</time>
      </trkpt>
      <trkpt lat="43.45709" lon="6.59794">
        <ele>92.42395</ele>
        <time>2014-03-11T12:54:54Z</time>
      </trkpt>
      <trkpt lat="43.45732" lon="6.59803">
        <ele>81.368774</ele>
        <time>2014-03-11T12:55:48Z</time>
      </trkpt>
      <trkpt lat="43.45756" lon="6.59789">
        <ele>75.120239</ele>
        <time>2014-03-11T12:56:17Z</time>
      </trkpt>
      <trkpt lat="43.45781" lon="6.59774">
        <ele>72.236206</ele>
        <time>2014-03-11T12:56:46Z</time>
      </trkpt>
      <trkpt lat="43.45809" lon="6.59772">
        <ele>68.390869</ele>
        <time>2014-03-11T12:57:17Z</time>
      </trkpt>
      <trkpt lat="43.45832" lon="6.59756">
        <ele>65.026367</ele>
        <time>2014-03-11T12:57:42Z</time>
      </trkpt>
      <trkpt lat="43.4584" lon="6.59721">
        <ele>63.103638</ele>
        <time>2014-03-11T12:58:09Z</time>
      </trkpt>
      <trkpt lat="43.45849" lon="6.59688">
        <ele>58.297119</ele>
        <time>2014-03-11T12:58:38Z</time>
      </trkpt>
      <trkpt lat="43.45869" lon="6.5966">
        <ele>53.490479</ele>
        <time>2014-03-11T12:59:09Z</time>
      </trkpt>
      <trkpt lat="43.45885" lon="6.5962">
        <ele>52.529175</ele>
        <time>2014-03-11T13:00:09Z</time>
      </trkpt>
      <trkpt lat="43.45899" lon="6.5959">
        <ele>49.164551</ele>
        <time>2014-03-11T13:01:01Z</time>
      </trkpt>
      <trkpt lat="43.45847" lon="6.59491">
        <ele>36.66748</ele>
        <time>2014-03-11T13:03:41Z</time>
      </trkpt>
      <trkpt lat="43.45897" lon="6.592">
        <ele>102.5177</ele>
        <time>2014-03-11T13:32:23Z</time>
      </trkpt>
      <trkpt lat="43.45885" lon="6.59165">
        <ele>148.18042</ele>
        <time>2014-03-11T13:34:07Z</time>
      </trkpt>
      <trkpt lat="43.45879" lon="6.59205">
        <ele>99.633789</ele>
        <time>2014-03-11T13:51:53Z</time>
      </trkpt>
      <trkpt lat="43.45898" lon="6.59233">
        <ele>68.871582</ele>
        <time>2014-03-11T14:14:33Z</time>
      </trkpt>
      <trkpt lat="43.45897" lon="6.59313">
        <ele>39.55127</ele>
        <time>2014-03-11T14:28:07Z</time>
      </trkpt>
      <trkpt lat="43.46001" lon="6.59286">
        <ele>23.208984</ele>
        <time>2014-03-11T14:30:20Z</time>
      </trkpt>
      <trkpt lat="43.46054" lon="6.59259">
        <ele>10.231201</ele>
        <time>2014-03-11T14:31:20Z</time>
      </trkpt>
      <trkpt lat="43.46082" lon="6.59178">
        <ele>-4.669312</ele>
        <time>2014-03-11T14:32:26Z</time>
      </trkpt>
      <trkpt lat="43.46105" lon="6.59082">
        <ele>-9.956543</ele>
        <time>2014-03-11T14:33:25Z</time>
      </trkpt>
      <trkpt lat="43.46119" lon="6.59014">
        <ele>-1.785278</ele>
        <time>2014-03-11T14:34:01Z</time>
      </trkpt>
      <trkpt lat="43.46133" lon="6.58958">
        <ele>3.02124</ele>
        <time>2014-03-11T14:34:35Z</time>
      </trkpt>
      <trkpt lat="43.46147" lon="6.58908">
        <ele>11.673218</ele>
        <time>2014-03-11T14:35:04Z</time>
      </trkpt>
      <trkpt lat="43.46155" lon="6.58851">
        <ele>3.982666</ele>
        <time>2014-03-11T14:35:41Z</time>
      </trkpt>
      <trkpt lat="43.46169" lon="6.58795">
        <ele>-8.995239</ele>
        <time>2014-03-11T14:36:17Z</time>
      </trkpt>
      <trkpt lat="43.46181" lon="6.58735">
        <ele>-12.359863</ele>
        <time>2014-03-11T14:36:54Z</time>
      </trkpt>
      <trkpt lat="43.4619" lon="6.58685">
        <ele>-16.2052</ele>
        <time>2014-03-11T14:37:24Z</time>
      </trkpt>
      <trkpt lat="43.46203" lon="6.5863">
        <ele>-12.840454</ele>
        <time>2014-03-11T14:37:57Z</time>
      </trkpt>
      <trkpt lat="43.46217" lon="6.5858">
        <ele>-12.840454</ele>
        <time>2014-03-11T14:38:28Z</time>
      </trkpt>
      <trkpt lat="43.46223" lon="6.58517">
        <ele>-11.398438</ele>
        <time>2014-03-11T14:39:04Z</time>
      </trkpt>
      <trkpt lat="43.46234" lon="6.58465">
        <ele>-12.359863</ele>
        <time>2014-03-11T14:39:35Z</time>
      </trkpt>
      <trkpt lat="43.46249" lon="6.5841">
        <ele>-11.398438</ele>
        <time>2014-03-11T14:40:08Z</time>
      </trkpt>
      <trkpt lat="43.46262" lon="6.58358">
        <ele>-6.591919</ele>
        <time>2014-03-11T14:40:37Z</time>
      </trkpt>
      <trkpt lat="43.46271" lon="6.58316">
        <ele>-1.785278</ele>
        <time>2014-03-11T14:41:00Z</time>
      </trkpt>
      <trkpt lat="43.46271" lon="6.58271">
        <ele>2.540649</ele>
        <time>2014-03-11T14:41:24Z</time>
      </trkpt>
      <trkpt lat="43.46278" lon="6.5823">
        <ele>8.308594</ele>
        <time>2014-03-11T14:41:46Z</time>
      </trkpt>
      <trkpt lat="43.46287" lon="6.58194">
        <ele>12.153809</ele>
        <time>2014-03-11T14:42:08Z</time>
      </trkpt>
      <trkpt lat="43.46296" lon="6.58157">
        <ele>13.595825</ele>
        <time>2014-03-11T14:42:30Z</time>
      </trkpt>
      <trkpt lat="43.46307" lon="6.5812">
        <ele>17.441162</ele>
        <time>2014-03-11T14:42:52Z</time>
      </trkpt>
      <trkpt lat="43.46318" lon="6.58082">
        <ele>21.286377</ele>
        <time>2014-03-11T14:43:15Z</time>
      </trkpt>
      <trkpt lat="43.46326" lon="6.58044">
        <ele>22.247559</ele>
        <time>2014-03-11T14:43:36Z</time>
      </trkpt>
      <trkpt lat="43.46335" lon="6.58005">
        <ele>23.208984</ele>
        <time>2014-03-11T14:43:58Z</time>
      </trkpt>
      <trkpt lat="43.46343" lon="6.5796">
        <ele>21.766968</ele>
        <time>2014-03-11T14:44:24Z</time>
      </trkpt>
      <trkpt lat="43.46347" lon="6.57919">
        <ele>22.728271</ele>
        <time>2014-03-11T14:44:46Z</time>
      </trkpt>
      <trkpt lat="43.46346" lon="6.57848">
        <ele>32.822266</ele>
        <time>2014-03-11T14:45:43Z</time>
      </trkpt>
      <trkpt lat="43.46342" lon="6.5777">
        <ele>30.899536</ele>
        <time>2014-03-11T14:46:26Z</time>
      </trkpt>
      <trkpt lat="43.46357" lon="6.57735">
        <ele>36.186768</ele>
        <time>2014-03-11T14:47:01Z</time>
      </trkpt>
      <trkpt lat="43.46374" lon="6.577">
        <ele>37.148071</ele>
        <time>2014-03-11T14:47:46Z</time>
      </trkpt>
      <trkpt lat="43.46368" lon="6.57662">
        <ele>37.628662</ele>
        <time>2014-03-11T14:48:10Z</time>
      </trkpt>
      <trkpt lat="43.46367" lon="6.57621">
        <ele>40.032104</ele>
        <time>2014-03-11T14:48:33Z</time>
      </trkpt>
      <trkpt lat="43.46355" lon="6.57583">
        <ele>37.628662</ele>
        <time>2014-03-11T14:48:57Z</time>
      </trkpt>
      <trkpt lat="43.46352" lon="6.57545">
        <ele>39.55127</ele>
        <time>2014-03-11T14:49:20Z</time>
      </trkpt>
      <trkpt lat="43.46354" lon="6.57505">
        <ele>39.55127</ele>
        <time>2014-03-11T14:49:42Z</time>
      </trkpt>
      <trkpt lat="43.46359" lon="6.57464">
        <ele>38.109375</ele>
        <time>2014-03-11T14:50:04Z</time>
      </trkpt>
      <trkpt lat="43.46367" lon="6.57426">
        <ele>40.032104</ele>
        <time>2014-03-11T14:50:31Z</time>
      </trkpt>
      <trkpt lat="43.46355" lon="6.57388">
        <ele>40.512817</ele>
        <time>2014-03-11T14:51:02Z</time>
      </trkpt>
      <trkpt lat="43.46338" lon="6.57351">
        <ele>40.993408</ele>
        <time>2014-03-11T14:51:25Z</time>
      </trkpt>
      <trkpt lat="43.46333" lon="6.57314">
        <ele>39.070679</ele>
        <time>2014-03-11T14:51:49Z</time>
      </trkpt>
      <trkpt lat="43.46345" lon="6.57278">
        <ele>39.070679</ele>
        <time>2014-03-11T14:52:37Z</time>
      </trkpt>
      <trkpt lat="43.4636" lon="6.57236">
        <ele>38.109375</ele>
        <time>2014-03-11T14:53:18Z</time>
      </trkpt>
      <trkpt lat="43.46349" lon="6.57173">
        <ele>34.744873</ele>
        <time>2014-03-11T14:54:58Z</time>
      </trkpt>
    </trkseg>
  </trk>
</gpx>